createdAt,value
2022-12-18T00:02:54.689Z,29.67
2022-12-18T00:06:20.612Z,26.83
2022-12-18T00:09:45.106Z,28.10
2022-12-18T00:13:10.275Z,28.00
2022-12-18T00:16:37.830Z,30.40
2022-12-18T00:20:01.904Z,30.03
2022-12-18T00:23:26.120Z,28.30
2022-12-18T00:26:49.947Z,28.80
2022-12-18T00:30:16.983Z,25.80
2022-12-18T00:33:45.983Z,30.53
2022-12-18T00:37:09.960Z,24.53
2022-12-18T00:40:33.647Z,27.20
2022-12-18T00:43:56.310Z,28.93
2022-12-18T00:47:21.376Z,23.67
2022-12-18T00:50:50.130Z,23.77
2022-12-18T00:54:14.776Z,25.90
2022-12-18T00:57:38.711Z,26.17
2022-12-18T01:01:05.949Z,28.67
2022-12-18T01:04:34.023Z,28.23
2022-12-18T01:07:59.591Z,28.23
2022-12-18T01:11:24.765Z,25.50
2022-12-18T01:14:51.496Z,27.67
2022-12-18T01:18:15.952Z,25.80
2022-12-18T01:21:41.122Z,25.20
2022-12-18T01:25:07.555Z,25.63
2022-12-18T01:28:31.929Z,24.50
2022-12-18T01:31:57.628Z,25.13
2022-12-18T01:35:24.652Z,24.40
2022-12-18T01:38:49.054Z,23.17
2022-12-18T01:42:19.344Z,24.73
2022-12-18T01:45:48.981Z,24.53
2022-12-18T01:49:13.306Z,22.70
2022-12-18T01:52:37.895Z,23.13
2022-12-18T01:56:05.388Z,22.27
2022-12-18T01:59:32.645Z,25.83
2022-12-18T02:02:57.848Z,22.20
2022-12-18T02:06:29.329Z,22.57
2022-12-18T02:10:03.366Z,21.50
2022-12-18T02:13:36.928Z,22.77
2022-12-18T02:17:07.049Z,21.60
2022-12-18T02:20:37.076Z,23.20
2022-12-18T02:24:15.265Z,21.43
2022-12-18T02:27:43.475Z,22.93
2022-12-18T02:31:11.686Z,21.10
2022-12-18T02:34:40.330Z,21.10
2022-12-18T02:38:08.855Z,20.40
2022-12-18T02:41:34.371Z,18.57
2022-12-18T02:45:02.543Z,19.53
2022-12-18T02:48:33.143Z,19.20
2022-12-18T02:52:04.420Z,20.70
2022-12-18T02:55:36.581Z,19.07
2022-12-18T02:59:09.983Z,16.73
2022-12-18T03:02:48.983Z,18.57
2022-12-18T03:06:16.117Z,19.50
2022-12-18T03:09:45.598Z,18.53
2022-12-18T03:13:19.080Z,18.13
2022-12-18T03:16:46.739Z,20.00
2022-12-18T03:20:17.023Z,17.37
2022-12-18T03:23:46.510Z,20.53
2022-12-18T03:27:15.160Z,18.03
2022-12-18T03:30:41.978Z,19.00
2022-12-18T03:34:11.110Z,19.37
2022-12-18T03:37:42.657Z,18.20
2022-12-18T03:41:15.071Z,17.50
2022-12-18T03:45:04.874Z,17.93
2022-12-18T03:48:33.799Z,17.73
2022-12-18T03:52:08.537Z,17.13
2022-12-18T03:55:37.307Z,19.77
2022-12-18T03:59:05.145Z,18.80
2022-12-18T04:02:32.453Z,19.30
2022-12-18T04:06:01.241Z,19.37
2022-12-18T04:09:26.278Z,16.60
2022-12-18T04:12:52.580Z,18.20
2022-12-18T04:16:19.301Z,16.30
2022-12-18T04:19:47.258Z,18.67
2022-12-18T04:23:11.161Z,18.70
2022-12-18T04:26:36.484Z,17.73
2022-12-18T04:30:14.468Z,17.27
2022-12-18T04:33:38.867Z,16.73
2022-12-18T04:37:04.239Z,17.13
2022-12-18T04:40:29.268Z,16.27
2022-12-18T04:43:53.175Z,17.20
2022-12-18T04:47:18.701Z,16.53
2022-12-18T04:50:43.223Z,15.90
2022-12-18T04:54:07.405Z,16.67
2022-12-18T04:57:31.334Z,17.17
2022-12-18T05:00:55.777Z,16.40
2022-12-18T05:04:27.542Z,17.10
2022-12-18T05:07:51.267Z,17.97
2022-12-18T05:11:17.606Z,15.23
2022-12-18T05:14:41.293Z,17.77
2022-12-18T05:18:05.983Z,15.43
2022-12-18T05:21:31.897Z,16.60
2022-12-18T05:24:56.211Z,15.43
2022-12-18T05:28:20.471Z,15.57
2022-12-18T05:31:46.969Z,15.33
2022-12-18T05:35:15.430Z,16.07
2022-12-18T05:38:41.408Z,16.20
2022-12-18T05:42:05.104Z,17.30
2022-12-18T05:45:29.361Z,15.07
2022-12-18T05:48:53.599Z,14.00
2022-12-18T05:52:17.782Z,14.60
2022-12-18T05:55:46.464Z,17.00
2022-12-18T05:59:12.922Z,16.37
2022-12-18T06:02:38.435Z,15.10
2022-12-18T06:06:02.786Z,16.80
2022-12-18T06:09:27.281Z,16.00
2022-12-18T06:12:52.634Z,16.00
2022-12-18T06:16:19.088Z,15.87
2022-12-18T06:19:42.685Z,16.43
2022-12-18T06:23:07.587Z,17.43
2022-12-18T06:26:34.207Z,16.53
2022-12-18T06:29:59.693Z,17.83
2022-12-18T06:33:27.785Z,17.87
2022-12-18T06:36:52.272Z,17.97
2022-12-18T06:40:16.565Z,16.17
2022-12-18T06:43:41.328Z,16.00
2022-12-18T06:47:06.702Z,16.77
2022-12-18T06:50:32.761Z,12.67
2022-12-18T06:53:57.226Z,16.57
2022-12-18T06:57:23.924Z,17.10
2022-12-18T07:00:48.593Z,18.63
2022-12-18T07:04:13.742Z,16.57
2022-12-18T07:07:38.436Z,13.97
2022-12-18T07:11:09.704Z,16.27
2022-12-18T07:14:38.866Z,16.37
2022-12-18T07:18:02.485Z,16.10
2022-12-18T07:21:27.808Z,15.23
2022-12-18T07:24:51.449Z,14.10
2022-12-18T07:28:17.509Z,14.50
2022-12-18T07:31:41.579Z,15.83
2022-12-18T07:35:05.934Z,15.73
2022-12-18T07:38:30.995Z,15.97
2022-12-18T07:42:09.098Z,13.40
2022-12-18T07:45:32.868Z,14.83
2022-12-18T07:48:57.363Z,13.77
2022-12-18T07:52:26.580Z,15.37
2022-12-18T07:56:25.400Z,15.00
2022-12-18T07:59:40.437Z,15.13
2022-12-18T08:03:04.584Z,14.80
2022-12-18T08:06:29.473Z,16.50
2022-12-18T08:09:55.716Z,14.57
2022-12-18T08:13:20.950Z,16.00
2022-12-18T08:16:48.674Z,16.73
2022-12-18T08:20:14.850Z,16.40
2022-12-18T08:23:42.995Z,15.80
2022-12-18T08:27:28.486Z,13.80
2022-12-18T08:31:19.926Z,15.53
2022-12-18T08:34:45.426Z,16.43
2022-12-18T08:38:09.441Z,14.83
2022-12-18T08:41:33.470Z,16.40
2022-12-18T08:44:57.792Z,15.47
2022-12-18T08:48:22.941Z,15.57
2022-12-18T08:51:47.499Z,14.13
2022-12-18T08:55:19.283Z,15.47
2022-12-18T08:58:44.826Z,15.77
2022-12-18T09:02:10.268Z,14.83
2022-12-18T09:05:35.361Z,14.63
2022-12-18T09:08:59.746Z,15.07
2022-12-18T09:12:24.474Z,14.83
2022-12-18T09:15:51.307Z,15.27
2022-12-18T09:19:15.736Z,14.97
2022-12-18T09:22:41.937Z,14.83
2022-12-18T09:26:06.853Z,13.80
2022-12-18T09:29:30.649Z,16.40
2022-12-18T09:32:55.591Z,17.80
2022-12-18T09:36:20.567Z,16.70
2022-12-18T09:39:46.883Z,16.70
2022-12-18T09:43:17.041Z,15.70
2022-12-18T09:46:46.027Z,14.73
2022-12-18T09:50:27.844Z,13.47
2022-12-18T09:54:01.177Z,12.60
2022-12-18T09:57:27.568Z,14.87
2022-12-18T10:00:55.774Z,13.60
2022-12-18T10:04:19.637Z,13.60
2022-12-18T10:07:56.043Z,12.83
2022-12-18T10:11:34.220Z,11.87
2022-12-18T10:15:03.974Z,14.30
2022-12-18T10:18:39.214Z,14.27
2022-12-18T10:22:12.073Z,14.50
2022-12-18T10:25:43.000Z,15.23
2022-12-18T10:29:13.119Z,12.40
2022-12-18T10:32:38.007Z,10.83
2022-12-18T10:36:03.862Z,10.97
2022-12-18T10:39:27.653Z,9.80
2022-12-18T10:43:11.358Z,10.07
2022-12-18T10:46:42.377Z,10.77
2022-12-18T10:50:26.096Z,9.80
2022-12-18T10:53:56.306Z,9.37
2022-12-18T10:57:33.509Z,9.70
2022-12-18T11:01:06.800Z,9.67
2022-12-18T11:04:32.403Z,8.60
2022-12-18T11:07:58.437Z,8.40
2022-12-18T11:11:24.271Z,10.17
2022-12-18T11:14:51.051Z,7.53
2022-12-18T11:18:21.019Z,8.67
2022-12-18T11:21:44.837Z,9.57
2022-12-18T11:25:36.645Z,9.03
2022-12-18T11:29:11.890Z,8.10
2022-12-18T11:32:39.119Z,9.27
2022-12-18T11:36:05.741Z,9.47
2022-12-18T11:39:39.456Z,9.37
2022-12-18T11:43:10.684Z,8.83
2022-12-18T11:46:39.367Z,9.57
2022-12-18T11:50:12.882Z,8.10
2022-12-18T11:53:39.011Z,8.97
2022-12-18T11:57:10.974Z,9.87
2022-12-18T12:00:39.840Z,8.23
2022-12-18T12:04:25.632Z,9.70
2022-12-18T12:07:57.309Z,9.63
2022-12-18T12:11:33.503Z,8.53
2022-12-18T12:15:05.298Z,9.63
2022-12-18T12:18:38.675Z,9.67
2022-12-18T12:22:11.013Z,7.87
2022-12-18T12:25:41.541Z,9.50
2022-12-18T12:29:30.554Z,8.70
2022-12-18T12:33:13.179Z,8.77
2022-12-18T12:36:46.714Z,8.40
2022-12-18T12:40:49.270Z,8.50
2022-12-18T12:44:05.122Z,6.07
2022-12-18T12:47:32.403Z,8.20
2022-12-18T12:50:58.219Z,7.80
2022-12-18T12:54:26.207Z,8.60
2022-12-18T12:57:58.171Z,7.50
2022-12-18T13:01:32.029Z,8.03
2022-12-18T13:05:01.453Z,9.43
2022-12-18T13:08:28.422Z,7.27
2022-12-18T13:12:22.674Z,7.80
2022-12-18T13:15:49.310Z,9.03
2022-12-18T13:19:26.272Z,7.70
2022-12-18T13:22:52.324Z,9.40
2022-12-18T13:26:33.002Z,7.60
2022-12-18T13:29:58.151Z,7.10
2022-12-18T13:34:16.587Z,7.43
2022-12-18T13:37:45.263Z,8.73
2022-12-18T13:41:25.348Z,7.00
2022-12-18T13:44:49.672Z,8.50
2022-12-18T13:48:26.364Z,7.10
2022-12-18T13:51:52.585Z,7.23
2022-12-18T13:55:20.813Z,6.97
2022-12-18T13:58:45.310Z,7.47
2022-12-18T14:02:16.489Z,6.70
2022-12-18T14:05:43.442Z,7.83
2022-12-18T14:09:19.023Z,8.03
2022-12-18T14:13:02.208Z,8.23
2022-12-18T14:16:27.615Z,9.87
2022-12-18T14:19:53.189Z,7.40
2022-12-18T14:23:33.148Z,7.63
2022-12-18T14:27:14.870Z,7.73
2022-12-18T14:30:40.004Z,8.60
2022-12-18T14:34:03.750Z,7.07
2022-12-18T14:37:29.136Z,7.83
2022-12-18T14:40:59.553Z,8.07
2022-12-18T14:44:23.472Z,6.70
2022-12-18T14:47:47.221Z,7.47
2022-12-18T14:51:19.228Z,8.10
2022-12-18T14:54:47.672Z,8.47
2022-12-18T14:58:17.423Z,7.20
2022-12-18T15:01:48.180Z,7.60
2022-12-18T15:05:20.842Z,6.33
2022-12-18T15:08:44.751Z,6.70
2022-12-18T15:12:26.592Z,6.60
2022-12-18T15:15:52.535Z,6.30
2022-12-18T15:19:18.703Z,6.23
2022-12-18T15:22:42.566Z,6.90
2022-12-18T15:26:09.881Z,6.60
2022-12-18T15:29:33.908Z,6.30
2022-12-18T15:33:25.918Z,6.43
2022-12-18T15:36:49.941Z,6.40
2022-12-18T15:40:18.771Z,7.40
2022-12-18T15:43:44.533Z,7.63
2022-12-18T15:47:14.702Z,6.03
2022-12-18T15:50:40.035Z,6.97
2022-12-18T15:54:05.567Z,6.10
2022-12-18T15:57:28.424Z,6.80
2022-12-18T16:00:52.216Z,7.73
2022-12-18T16:04:18.199Z,5.33
2022-12-18T16:07:43.358Z,7.10
2022-12-18T16:11:08.017Z,6.87
2022-12-18T16:14:33.460Z,6.80
2022-12-18T16:17:57.394Z,7.10
2022-12-18T16:21:21.165Z,8.30
2022-12-18T16:24:46.650Z,7.27
2022-12-18T16:28:10.451Z,9.93
2022-12-18T16:31:35.304Z,7.50
2022-12-18T16:35:01.959Z,7.50
2022-12-18T16:38:25.527Z,6.13
2022-12-18T16:41:50.765Z,5.60
2022-12-18T16:45:17.431Z,7.57
2022-12-18T16:48:41.133Z,7.30
2022-12-18T16:52:05.723Z,7.47
2022-12-18T16:55:29.732Z,7.67
2022-12-18T16:58:56.171Z,6.83
2022-12-18T17:02:22.880Z,9.23
2022-12-18T17:05:53.235Z,9.03
2022-12-18T17:09:19.287Z,8.53
2022-12-18T17:12:43.475Z,9.67
2022-12-18T17:16:10.678Z,8.50
2022-12-18T17:19:34.854Z,8.47
2022-12-18T17:23:01.684Z,8.40
2022-12-18T17:26:26.619Z,8.63
2022-12-18T17:29:50.408Z,9.57
2022-12-18T17:33:15.961Z,8.10
2022-12-18T17:36:41.311Z,7.47
2022-12-18T17:40:06.148Z,8.60
2022-12-18T17:43:29.995Z,9.60
2022-12-18T17:46:54.106Z,9.17
2022-12-18T17:50:19.643Z,9.90
2022-12-18T17:53:43.930Z,10.00
2022-12-18T17:57:08.242Z,9.97
2022-12-18T18:00:39.130Z,8.13
2022-12-18T18:04:04.614Z,9.33
2022-12-18T18:07:29.879Z,9.00
2022-12-18T18:10:53.892Z,9.90
2022-12-18T18:14:18.929Z,8.53
2022-12-18T18:17:43.284Z,9.67
2022-12-18T18:21:07.583Z,10.33
2022-12-18T18:24:34.096Z,10.03
2022-12-18T18:27:57.818Z,9.90
2022-12-18T18:31:21.690Z,10.00
2022-12-18T18:34:48.450Z,10.00
2022-12-18T18:38:12.460Z,10.67
2022-12-18T18:41:37.480Z,10.67
2022-12-18T18:45:01.068Z,11.10
2022-12-18T18:48:24.901Z,8.43
2022-12-18T18:51:52.489Z,11.90
2022-12-18T18:55:21.397Z,11.30
2022-12-18T18:58:51.788Z,13.50
2022-12-18T19:02:16.553Z,12.40
2022-12-18T19:05:43.079Z,13.67
2022-12-18T19:09:12.428Z,10.43
2022-12-18T19:12:53.749Z,12.20
2022-12-18T19:16:20.195Z,12.60
2022-12-18T19:19:47.525Z,10.23
2022-12-18T19:23:11.343Z,15.47
2022-12-18T19:26:35.199Z,12.60
2022-12-18T19:30:03.436Z,13.90
2022-12-18T19:33:45.191Z,14.63
2022-12-18T19:37:09.049Z,12.47
2022-12-18T19:40:32.714Z,11.07
2022-12-18T19:43:56.482Z,14.80
2022-12-18T19:47:20.246Z,14.27
2022-12-18T19:50:45.361Z,10.40
2022-12-18T19:54:14.741Z,12.47
2022-12-18T19:57:40.483Z,10.00
2022-12-18T20:01:04.457Z,10.60
2022-12-18T20:04:35.122Z,15.40
2022-12-18T20:08:00.088Z,13.37
2022-12-18T20:11:24.089Z,12.70
2022-12-18T20:14:48.191Z,13.97
2022-12-18T20:18:12.081Z,18.40
2022-12-18T20:21:36.290Z,16.37
2022-12-18T20:25:01.458Z,11.93
2022-12-18T20:28:25.822Z,16.90
2022-12-18T20:31:49.673Z,18.43
2022-12-18T20:35:13.494Z,13.80
2022-12-18T20:38:38.987Z,13.53
2022-12-18T20:42:04.728Z,14.83
2022-12-18T20:45:29.429Z,14.60
2022-12-18T20:48:53.021Z,19.43
2022-12-18T20:52:19.365Z,13.97
2022-12-18T20:55:44.607Z,13.47
2022-12-18T20:59:11.248Z,15.20
2022-12-18T21:02:35.991Z,17.27
2022-12-18T21:05:59.725Z,14.20
2022-12-18T21:09:23.387Z,10.47
2022-12-18T21:12:58.728Z,17.60
2022-12-18T21:16:25.267Z,14.00
2022-12-18T21:19:49.736Z,11.47
2022-12-18T21:23:16.668Z,17.60
2022-12-18T21:26:46.047Z,13.33
2022-12-18T21:30:10.933Z,17.73
2022-12-18T21:33:35.976Z,13.87
2022-12-18T21:37:01.661Z,14.40
2022-12-18T21:40:26.152Z,15.50
2022-12-18T21:44:07.290Z,14.73
2022-12-18T21:47:31.065Z,15.90
2022-12-18T21:50:55.964Z,13.80
2022-12-18T21:54:21.098Z,11.73
2022-12-18T21:57:45.273Z,14.80
2022-12-18T22:01:09.556Z,15.23
2022-12-18T22:04:33.301Z,17.30
2022-12-18T22:07:58.742Z,16.77
2022-12-18T22:11:23.338Z,14.00
2022-12-18T22:14:47.273Z,14.93
2022-12-18T22:18:10.837Z,17.37
2022-12-18T22:21:37.745Z,12.00
2022-12-18T22:25:02.725Z,13.03
2022-12-18T22:28:43.718Z,14.23
2022-12-18T22:32:10.513Z,17.90
2022-12-18T22:35:35.669Z,16.77
2022-12-18T22:39:00.694Z,15.17
2022-12-18T22:42:25.752Z,15.60
2022-12-18T22:45:50.353Z,15.40
2022-12-18T22:49:23.230Z,18.77
2022-12-18T22:52:47.290Z,14.50
2022-12-18T22:56:15.715Z,12.73
2022-12-18T22:59:44.755Z,13.20
2022-12-18T23:03:09.615Z,16.80
2022-12-18T23:06:34.355Z,15.20
2022-12-18T23:10:02.512Z,13.27
2022-12-18T23:13:27.255Z,12.90
2022-12-18T23:16:55.366Z,11.37
2022-12-18T23:20:19.350Z,14.53
2022-12-18T23:23:44.293Z,16.10
2022-12-18T23:27:11.597Z,13.93
2022-12-18T23:30:36.553Z,15.17
2022-12-18T23:34:02.882Z,18.27
2022-12-18T23:37:56.910Z,15.80
2022-12-18T23:41:12.375Z,15.43
2022-12-18T23:44:39.022Z,15.40
2022-12-18T23:48:03.382Z,15.43
2022-12-18T23:51:29.944Z,18.40
2022-12-18T23:54:55.924Z,15.23
2022-12-18T23:58:28.921Z,17.60
